Bristol Airport, United Kingdom

11:32 PM GMT on January 31, 2015 (GMT +0000)
Bristol | Change Station
CLOSE
Current Station
Airport
Location: Bristol Airport,
Elevation: 620 ft
Nearby Weather Stations

Elev 620 ft 51.38 °N, 2.72 °W | Updated 12 minutes ago

Partly Cloudy
Partly Cloudy
36 °F
Feels Like 26 °F
N
16
Wind Variable Wind from NW

Today
High -- | Low -- °F
--% Chance of Precip.
Yesterday
High -- | Low -- °F
Precip. -- in
7:50 AM 4:58 PM
Waxing Gibbous, 92% visible
Pressure 29.47 in
Visibility 6.2 miles
Clouds Few 2900 ft
Windchill 26 °F
Dew Point 27 °F
Humidity 70%
Rainfall 0.00 in
Snow Depth Not available.
UV 0 out of 12
Pollen Not available.
Air Quality Not available.
Flu Activity Not available.
METAR EGGD 312320Z 31014KT 9999 FEW029 02/M03 Q0998

More Conditions Fewer Conditions

Pressure 29.47 in
Visibility 6.2 miles
Clouds Few 2900 ft
Windchill 26 °F
Dew Point 27 °F
Humidity 70%
Rainfall 0.00 in
Snow Depth Not available.
UV 0 out of 12
Pollen Not available.
Air Quality Not available.
Flu Activity Not available.
METAR EGGD 312320Z 31014KT 9999 FEW029 02/M03 Q0998

More Conditions Fewer Conditions

10-Day Weather Forecast

Almanac

Astronomy

Jan. 31, 2015 Rise Set
Actual Time
Civil Twilight
Nautical Twilight
Astronomical Twilight
Moon
Length of Visible Light
Length of Day
Tomorrow will be .
, % of the Moon is Illuminated

Today's Extremes

Country Highs Country Lows

Community

WunderPhotos

Upload Photos

1,792,248 photos uploaded!

WunderBlogs® & News

Nearby

Air Quality

  Air Quality AQ Index Pollutant
Not available.

Snow Depth

Station Depth Elevation

Earthquake Activity

City Distance Mag. Time & Date
Minimum magnitude displayed is 2.5.

Coastal Water Temperatures

Place Temperature

Nearby Weather Stations